Fox, Arkansas
Current Conditions -  °F | °C
As of 8:15 AM on Saturday 22 Nov 2014 (Local Time) from KCCA Reporting Station
Haze Haze  
Wind Chill: 46°   Ceiling: 3600
Heat Index: 46°   Visibility: 3mi
Dew Point: 46°   Wind: 0mph
Humidity: 100%   Direction: NA
Pressure: 30.21"   Gusts: NA
Location:  35.79°N, 92.3°W
Report Text: KCCA 221415Z AUTO 00000KT 3SM BR OVC036 08/08 A3021 RMK AO2
Loading
Personal Weather Stations






























Interactive Weather Map New forecast layout! Learn more

10-Day Weather Forecast

Advertisements
Track Severe Weather on mobile